CheckWX is a tool to help pilots better visualize weather data.  It is not intended as a substitute for an official pre-flight weather briefing.

06:08:31 UTC

KWDG METAR
Enid Woodring Regional Airport
Enid, Oklahoma, USA
Current

14 mins ago

KWDG 260555Z AUTO 17009KT 10SM CLR 23/21 A2994 RMK AO2
Observed
Jun-26 @ 05:55 UTC
Wind
  • 170° at 9 KTS
Visibility
10 SM
Flight Rules
VFR
Cloud Levels
  • Clear skies
Temperature
23°C / 73°F
Dewpoint
21°C / 70°F
Humidity
89%
Altimeter
29.94" Hg
Pressure
1013.92 hPa
Previous

34 mins ago

KWDG 260535Z AUTO 15008KT 10SM CLR 23/21 A2996 RMK AO2
Observed
Jun-26 @ 05:35 UTC
Wind
  • 150° at 8 KTS
Visibility
10 SM
Flight Rules
VFR
Cloud Levels
  • Clear skies
Temperature
23°C / 73°F
Dewpoint
21°C / 70°F
Humidity
89%
Altimeter
29.96" Hg
Pressure
1014.52 hPa
Previous

54 mins ago

KWDG 260515Z AUTO 15007KT 10SM CLR 23/21 A2997 RMK AO2
Observed
Jun-26 @ 05:15 UTC
Wind
  • 150° at 7 KTS
Visibility
10 SM
Flight Rules
VFR
Cloud Levels
  • Clear skies
Temperature
23°C / 73°F
Dewpoint
21°C / 70°F
Humidity
89%
Altimeter
29.97" Hg
Pressure
1014.92 hPa